Sacramento, California
Traffic Map
Current Weather Conditions
Sacramento, California
Clear
Clear
64°
Feels Like: 64°
Wind Chill: 64° Ceiling: Unl
Heat Index: 64° Visibility: 10mi
Dew Point: 43° Wind: 16mph
Humidity: 46% Direction: 340° (NNW)
Pressure: 30.18in Gusts: 28mph
Raw Report DataKSAC 281753Z 34014G24KT 10SM CLR 18/06 A3018 RMK AO2 PK WND 35029/1704 SLP218 T01780061 10178 20106 50000
Traffic Incident Summary
Active as of:
Severity:
Category:
InformationThere was an issue retrieving the traffic information for this location. Please try a different location or try again shortly.
Advertisements
Track Severe Weather on mobile